sensor_id;sensor_type;location;lat;lon;timestamp;temperature;humidity
20845;DHT22;10583;49.084;8.646;2022-11-11T00:00:50;5.00;99.90
20845;DHT22;10583;49.084;8.646;2022-11-11T00:03:16;4.90;99.90
20845;DHT22;10583;49.084;8.646;2022-11-11T00:05:43;4.90;99.90
20845;DHT22;10583;49.084;8.646;2022-11-11T00:08:10;4.90;99.90
20845;DHT22;10583;49.084;8.646;2022-11-11T00:10:38;4.80;99.90
20845;DHT22;10583;49.084;8.646;2022-11-11T00:13:05;4.80;99.90
20845;DHT22;10583;49.084;8.646;2022-11-11T00:15:35;4.80;99.90
20845;DHT22;10583;49.084;8.646;2022-11-11T00:18:03;4.90;99.90
20845;DHT22;10583;49.084;8.646;2022-11-11T00:20:47;4.80;99.90
20845;DHT22;10583;49.084;8.646;2022-11-11T00:23:31;4.80;99.90
20845;DHT22;10583;49.084;8.646;2022-11-11T00:26:16;4.80;99.90
20845;DHT22;10583;49.084;8.646;2022-11-11T00:28:43;4.80;99.90
20845;DHT22;10583;49.084;8.646;2022-11-11T00:31:11;4.80;99.90
20845;DHT22;10583;49.084;8.646;2022-11-11T00:33:38;4.70;99.90
20845;DHT22;10583;49.084;8.646;2022-11-11T00:36:06;4.70;99.90
20845;DHT22;10583;49.084;8.646;2022-11-11T00:38:32;4.70;99.90
20845;DHT22;10583;49.084;8.646;2022-11-11T00:41:11;4.60;99.90
20845;DHT22;10583;49.084;8.646;2022-11-11T00:43:40;4.50;99.90
20845;DHT22;10583;49.084;8.646;2022-11-11T00:46:06;4.50;99.90
20845;DHT22;10583;49.084;8.646;2022-11-11T00:48:51;4.50;99.90
20845;DHT22;10583;49.084;8.646;2022-11-11T00:51:35;4.50;99.90
20845;DHT22;10583;49.084;8.646;2022-11-11T00:54:02;4.40;99.90
20845;DHT22;10583;49.084;8.646;2022-11-11T00:56:29;4.40;99.90
20845;DHT22;10583;49.084;8.646;2022-11-11T00:58:58;4.40;99.90
20845;DHT22;10583;49.084;8.646;2022-11-11T01:01:25;4.40;99.90
20845;DHT22;10583;49.084;8.646;2022-11-11T01:03:52;4.40;99.90
20845;DHT22;10583;49.084;8.646;2022-11-11T01:06:19;4.30;99.90
20845;DHT22;10583;49.084;8.646;2022-11-11T01:08:45;4.30;99.90
20845;DHT22;10583;49.084;8.646;2022-11-11T01:11:14;4.40;99.90
20845;DHT22;10583;49.084;8.646;2022-11-11T01:13:41;4.30;99.90
20845;DHT22;10583;49.084;8.646;2022-11-11T01:16:12;4.30;99.90
20845;DHT22;10583;49.084;8.646;2022-11-11T01:18:39;4.20;99.90
20845;DHT22;10583;49.084;8.646;2022-11-11T01:21:09;4.20;99.90
20845;DHT22;10583;49.084;8.646;2022-11-11T01:23:38;4.20;99.90
20845;DHT22;10583;49.084;8.646;2022-11-11T01:26:08;4.20;99.90
20845;DHT22;10583;49.084;8.646;2022-11-11T01:28:35;4.20;99.90
20845;DHT22;10583;49.084;8.646;2022-11-11T01:31:03;4.20;99.90
20845;DHT22;10583;49.084;8.646;2022-11-11T01:33:31;4.20;99.90
20845;DHT22;10583;49.084;8.646;2022-11-11T01:36:06;4.20;99.90
20845;DHT22;10583;49.084;8.646;2022-11-11T01:38:33;4.10;99.90
20845;DHT22;10583;49.084;8.646;2022-11-11T01:41:01;3.90;99.90
20845;DHT22;10583;49.084;8.646;2022-11-11T01:43:48;3.90;99.90
20845;DHT22;10583;49.084;8.646;2022-11-11T01:46:23;4.00;99.90
20845;DHT22;10583;49.084;8.646;2022-11-11T01:48:54;4.10;99.90
20845;DHT22;10583;49.084;8.646;2022-11-11T01:51:41;4.10;99.90
20845;DHT22;10583;49.084;8.646;2022-11-11T01:54:13;4.00;99.90
20845;DHT22;10583;49.084;8.646;2022-11-11T01:56:45;3.90;99.90
20845;DHT22;10583;49.084;8.646;2022-11-11T01:59:14;3.80;99.90
20845;DHT22;10583;49.084;8.646;2022-11-11T02:01:42;3.80;99.90
20845;DHT22;10583;49.084;8.646;2022-11-11T02:04:11;3.80;99.90
20845;DHT22;10583;49.084;8.646;2022-11-11T02:06:59;3.80;99.90
20845;DHT22;10583;49.084;8.646;2022-11-11T02:09:26;3.80;99.90
20845;DHT22;10583;49.084;8.646;2022-11-11T02:11:54;3.80;99.90
20845;DHT22;10583;49.084;8.646;2022-11-11T02:14:42;3.80;99.90
20845;DHT22;10583;49.084;8.646;2022-11-11T02:17:11;3.80;99.90
20845;DHT22;10583;49.084;8.646;2022-11-11T02:19:47;3.80;99.90
20845;DHT22;10583;49.084;8.646;2022-11-11T02:22:19;3.70;99.90
20845;DHT22;10583;49.084;8.646;2022-11-11T02:24:49;3.60;99.90
20845;DHT22;10583;49.084;8.646;2022-11-11T02:27:18;3.60;99.90
20845;DHT22;10583;49.084;8.646;2022-11-11T02:29:49;3.60;99.90
20845;DHT22;10583;49.084;8.646;2022-11-11T02:32:16;3.60;99.90
20845;DHT22;10583;49.084;8.646;2022-11-11T02:34:43;3.60;99.90
20845;DHT22;10583;49.084;8.646;2022-11-11T02:37:10;3.60;99.90
20845;DHT22;10583;49.084;8.646;2022-11-11T02:39:41;3.60;99.90
20845;DHT22;10583;49.084;8.646;2022-11-11T02:42:13;3.60;99.90
20845;DHT22;10583;49.084;8.646;2022-11-11T02:44:39;3.50;99.90
20845;DHT22;10583;49.084;8.646;2022-11-11T02:47:06;3.50;99.90
20845;DHT22;10583;49.084;8.646;2022-11-11T02:49:33;3.50;99.90
20845;DHT22;10583;49.084;8.646;2022-11-11T02:52:00;3.50;99.90
20845;DHT22;10583;49.084;8.646;2022-11-11T02:54:26;3.60;99.90
20845;DHT22;10583;49.084;8.646;2022-11-11T02:56:53;3.60;99.90
20845;DHT22;10583;49.084;8.646;2022-11-11T02:59:37;3.60;99.90
20845;DHT22;10583;49.084;8.646;2022-11-11T03:02:05;3.60;99.90
20845;DHT22;10583;49.084;8.646;2022-11-11T03:04:33;3.60;99.90
20845;DHT22;10583;49.084;8.646;2022-11-11T03:07:00;3.60;99.90
20845;DHT22;10583;49.084;8.646;2022-11-11T03:09:27;3.60;99.90
20845;DHT22;10583;49.084;8.646;2022-11-11T03:11:53;3.60;99.90
20845;DHT22;10583;49.084;8.646;2022-11-11T03:14:20;3.70;99.90
20845;DHT22;10583;49.084;8.646;2022-11-11T03:16:48;3.60;99.90
20845;DHT22;10583;49.084;8.646;2022-11-11T03:19:33;3.70;99.90
20845;DHT22;10583;49.084;8.646;2022-11-11T03:22:00;3.60;99.90
20845;DHT22;10583;49.084;8.646;2022-11-11T03:24:27;3.50;99.90
20845;DHT22;10583;49.084;8.646;2022-11-11T03:27:14;3.50;99.90
20845;DHT22;10583;49.084;8.646;2022-11-11T03:29:41;3.50;99.90
20845;DHT22;10583;49.084;8.646;2022-11-11T03:32:09;3.50;99.90
20845;DHT22;10583;49.084;8.646;2022-11-11T03:34:36;3.50;99.90
20845;DHT22;10583;49.084;8.646;2022-11-11T03:37:04;3.50;99.90
20845;DHT22;10583;49.084;8.646;2022-11-11T03:39:49;3.50;99.90
20845;DHT22;10583;49.084;8.646;2022-11-11T03:42:15;3.40;99.90
20845;DHT22;10583;49.084;8.646;2022-11-11T03:44:42;3.50;99.90
20845;DHT22;10583;49.084;8.646;2022-11-11T03:47:10;3.50;99.90
20845;DHT22;10583;49.084;8.646;2022-11-11T03:49:37;3.50;99.90
20845;DHT22;10583;49.084;8.646;2022-11-11T03:52:04;3.50;99.90
20845;DHT22;10583;49.084;8.646;2022-11-11T03:54:30;3.50;99.90
20845;DHT22;10583;49.084;8.646;2022-11-11T03:56:57;3.50;99.90
20845;DHT22;10583;49.084;8.646;2022-11-11T03:59:38;3.50;99.90
20845;DHT22;10583;49.084;8.646;2022-11-11T04:02:05;3.50;99.90
20845;DHT22;10583;49.084;8.646;2022-11-11T04:04:50;3.60;99.90
20845;DHT22;10583;49.084;8.646;2022-11-11T04:07:34;3.60;99.90
20845;DHT22;10583;49.084;8.646;2022-11-11T04:10:18;3.60;99.90
20845;DHT22;10583;49.084;8.646;2022-11-11T04:12:48;3.60;99.90
20845;DHT22;10583;49.084;8.646;2022-11-11T04:15:33;3.60;99.90
20845;DHT22;10583;49.084;8.646;2022-11-11T04:18:17;3.60;99.90
20845;DHT22;10583;49.084;8.646;2022-11-11T04:21:07;3.60;99.90
20845;DHT22;10583;49.084;8.646;2022-11-11T04:23:51;3.60;99.90
20845;DHT22;10583;49.084;8.646;2022-11-11T04:26:18;3.60;99.90
20845;DHT22;10583;49.084;8.646;2022-11-11T04:28:44;3.50;99.90
20845;DHT22;10583;49.084;8.646;2022-11-11T04:31:28;3.50;99.90
20845;DHT22;10583;49.084;8.646;2022-11-11T04:33:55;3.40;99.90
20845;DHT22;10583;49.084;8.646;2022-11-11T04:36:22;3.40;99.90
20845;DHT22;10583;49.084;8.646;2022-11-11T04:38:48;3.30;99.90
20845;DHT22;10583;49.084;8.646;2022-11-11T04:41:32;3.30;99.90
20845;DHT22;10583;49.084;8.646;2022-11-11T04:43:59;3.20;99.90
20845;DHT22;10583;49.084;8.646;2022-11-11T04:46:43;3.20;99.90
20845;DHT22;10583;49.084;8.646;2022-11-11T04:49:10;3.20;99.90
20845;DHT22;10583;49.084;8.646;2022-11-11T04:51:38;3.20;99.90
20845;DHT22;10583;49.084;8.646;2022-11-11T04:54:23;3.20;99.90
20845;DHT22;10583;49.084;8.646;2022-11-11T04:56:49;3.30;99.90
20845;DHT22;10583;49.084;8.646;2022-11-11T04:59:15;3.30;99.90
20845;DHT22;10583;49.084;8.646;2022-11-11T05:01:42;3.30;99.90
20845;DHT22;10583;49.084;8.646;2022-11-11T05:04:26;3.40;99.90
20845;DHT22;10583;49.084;8.646;2022-11-11T05:06:54;3.50;99.90
20845;DHT22;10583;49.084;8.646;2022-11-11T05:09:38;3.50;99.90
20845;DHT22;10583;49.084;8.646;2022-11-11T05:12:05;3.50;99.90
20845;DHT22;10583;49.084;8.646;2022-11-11T05:14:32;3.50;99.90
20845;DHT22;10583;49.084;8.646;2022-11-11T05:17:16;3.60;99.90
20845;DHT22;10583;49.084;8.646;2022-11-11T05:20:09;3.60;99.90
20845;DHT22;10583;49.084;8.646;2022-11-11T05:22:54;3.70;99.90
20845;DHT22;10583;49.084;8.646;2022-11-11T05:25:21;3.80;99.90
20845;DHT22;10583;49.084;8.646;2022-11-11T05:27:50;3.80;99.90
20845;DHT22;10583;49.084;8.646;2022-11-11T05:30:17;3.90;99.90
20845;DHT22;10583;49.084;8.646;2022-11-11T05:32:44;4.00;99.90
20845;DHT22;10583;49.084;8.646;2022-11-11T05:35:12;4.10;99.90
20845;DHT22;10583;49.084;8.646;2022-11-11T05:37:39;4.10;99.90
20845;DHT22;10583;49.084;8.646;2022-11-11T05:40:09;4.20;99.90
20845;DHT22;10583;49.084;8.646;2022-11-11T05:42:39;4.20;99.90
20845;DHT22;10583;49.084;8.646;2022-11-11T05:45:07;4.30;99.90
20845;DHT22;10583;49.084;8.646;2022-11-11T05:47:34;4.30;99.90
20845;DHT22;10583;49.084;8.646;2022-11-11T05:50:01;4.30;99.90
20845;DHT22;10583;49.084;8.646;2022-11-11T05:52:28;4.20;99.90
20845;DHT22;10583;49.084;8.646;2022-11-11T05:54:54;4.20;99.90
20845;DHT22;10583;49.084;8.646;2022-11-11T05:57:22;4.30;99.90
20845;DHT22;10583;49.084;8.646;2022-11-11T05:59:49;4.40;99.90
20845;DHT22;10583;49.084;8.646;2022-11-11T06:02:16;4.50;99.90
20845;DHT22;10583;49.084;8.646;2022-11-11T06:04:42;4.50;99.90
20845;DHT22;10583;49.084;8.646;2022-11-11T06:07:09;4.60;99.90
20845;DHT22;10583;49.084;8.646;2022-11-11T06:09:36;4.70;99.90
20845;DHT22;10583;49.084;8.646;2022-11-11T06:12:02;4.70;99.90
20845;DHT22;10583;49.084;8.646;2022-11-11T06:14:30;4.80;99.90
20845;DHT22;10583;49.084;8.646;2022-11-11T06:16:57;4.80;99.90
20845;DHT22;10583;49.084;8.646;2022-11-11T06:19:24;4.80;99.90
20845;DHT22;10583;49.084;8.646;2022-11-11T06:21:51;4.80;99.90
20845;DHT22;10583;49.084;8.646;2022-11-11T06:24:25;4.90;99.90
20845;DHT22;10583;49.084;8.646;2022-11-11T06:26:52;4.90;99.90
20845;DHT22;10583;49.084;8.646;2022-11-11T06:29:18;5.00;99.90
20845;DHT22;10583;49.084;8.646;2022-11-11T06:31:46;5.00;99.90
20845;DHT22;10583;49.084;8.646;2022-11-11T06:34:13;5.10;99.90
20845;DHT22;10583;49.084;8.646;2022-11-11T06:36:40;5.10;99.90
20845;DHT22;10583;49.084;8.646;2022-11-11T06:39:07;5.10;99.90
20845;DHT22;10583;49.084;8.646;2022-11-11T06:41:33;5.10;99.90
20845;DHT22;10583;49.084;8.646;2022-11-11T06:44:00;5.20;99.90
20845;DHT22;10583;49.084;8.646;2022-11-11T06:46:27;5.30;99.90
20845;DHT22;10583;49.084;8.646;2022-11-11T06:48:55;5.30;99.90
20845;DHT22;10583;49.084;8.646;2022-11-11T06:51:22;5.40;99.90
20845;DHT22;10583;49.084;8.646;2022-11-11T06:53:49;5.40;99.90
20845;DHT22;10583;49.084;8.646;2022-11-11T06:56:16;5.40;99.90
20845;DHT22;10583;49.084;8.646;2022-11-11T06:58:42;5.40;99.90
20845;DHT22;10583;49.084;8.646;2022-11-11T07:01:10;5.40;99.90
20845;DHT22;10583;49.084;8.646;2022-11-11T07:03:38;5.50;99.90
20845;DHT22;10583;49.084;8.646;2022-11-11T07:06:06;5.50;99.90
20845;DHT22;10583;49.084;8.646;2022-11-11T07:08:33;5.50;99.90
20845;DHT22;10583;49.084;8.646;2022-11-11T07:11:00;5.50;99.90
20845;DHT22;10583;49.084;8.646;2022-11-11T07:13:27;5.50;99.90
20845;DHT22;10583;49.084;8.646;2022-11-11T07:15:54;5.50;99.90
20845;DHT22;10583;49.084;8.646;2022-11-11T07:18:21;5.50;99.90
20845;DHT22;10583;49.084;8.646;2022-11-11T07:20:47;5.50;99.90
20845;DHT22;10583;49.084;8.646;2022-11-11T07:23:15;5.60;99.90
20845;DHT22;10583;49.084;8.646;2022-11-11T07:25:42;5.50;99.90
20845;DHT22;10583;49.084;8.646;2022-11-11T07:28:09;5.50;99.90
20845;DHT22;10583;49.084;8.646;2022-11-11T07:30:36;5.50;99.90
20845;DHT22;10583;49.084;8.646;2022-11-11T07:33:03;5.60;99.90
20845;DHT22;10583;49.084;8.646;2022-11-11T07:35:29;5.60;99.90
20845;DHT22;10583;49.084;8.646;2022-11-11T07:37:56;5.70;99.90
20845;DHT22;10583;49.084;8.646;2022-11-11T07:40:24;5.70;99.90
20845;DHT22;10583;49.084;8.646;2022-11-11T07:42:51;5.80;99.90
20845;DHT22;10583;49.084;8.646;2022-11-11T07:45:18;5.90;99.90
20845;DHT22;10583;49.084;8.646;2022-11-11T07:47:44;6.00;99.90
20845;DHT22;10583;49.084;8.646;2022-11-11T07:50:12;5.90;99.90
20845;DHT22;10583;49.084;8.646;2022-11-11T07:52:39;5.90;99.90
20845;DHT22;10583;49.084;8.646;2022-11-11T07:55:06;5.90;99.90
20845;DHT22;10583;49.084;8.646;2022-11-11T07:57:35;6.00;99.90
20845;DHT22;10583;49.084;8.646;2022-11-11T08:00:03;5.90;99.90
20845;DHT22;10583;49.084;8.646;2022-11-11T08:02:30;5.90;99.90
20845;DHT22;10583;49.084;8.646;2022-11-11T08:04:57;5.90;99.90
20845;DHT22;10583;49.084;8.646;2022-11-11T08:07:23;5.90;99.90
20845;DHT22;10583;49.084;8.646;2022-11-11T08:09:50;6.00;99.90
20845;DHT22;10583;49.084;8.646;2022-11-11T08:12:17;6.00;99.90
20845;DHT22;10583;49.084;8.646;2022-11-11T08:15:03;6.10;99.90
20845;DHT22;10583;49.084;8.646;2022-11-11T08:17:30;6.10;99.90
20845;DHT22;10583;49.084;8.646;2022-11-11T08:20:01;6.20;99.90
20845;DHT22;10583;49.084;8.646;2022-11-11T08:22:28;6.20;99.90
20845;DHT22;10583;49.084;8.646;2022-11-11T08:24:55;6.30;99.90
20845;DHT22;10583;49.084;8.646;2022-11-11T08:27:21;6.40;99.90
20845;DHT22;10583;49.084;8.646;2022-11-11T08:29:48;6.50;99.90
20845;DHT22;10583;49.084;8.646;2022-11-11T08:32:16;6.70;99.90
20845;DHT22;10583;49.084;8.646;2022-11-11T08:34:43;6.80;99.90
20845;DHT22;10583;49.084;8.646;2022-11-11T08:37:10;6.80;99.90
20845;DHT22;10583;49.084;8.646;2022-11-11T08:39:36;7.00;99.90
20845;DHT22;10583;49.084;8.646;2022-11-11T08:42:03;7.20;99.90
20845;DHT22;10583;49.084;8.646;2022-11-11T08:44:30;7.40;99.90
20845;DHT22;10583;49.084;8.646;2022-11-11T08:46:57;7.60;99.90
20845;DHT22;10583;49.084;8.646;2022-11-11T08:49:25;7.80;99.90
20845;DHT22;10583;49.084;8.646;2022-11-11T08:51:52;8.00;99.90
20845;DHT22;10583;49.084;8.646;2022-11-11T08:54:18;8.20;99.90
20845;DHT22;10583;49.084;8.646;2022-11-11T08:56:45;8.40;99.90
20845;DHT22;10583;49.084;8.646;2022-11-11T08:59:12;8.50;99.90
20845;DHT22;10583;49.084;8.646;2022-11-11T09:01:38;8.70;99.90
20845;DHT22;10583;49.084;8.646;2022-11-11T09:04:05;8.70;99.90
20845;DHT22;10583;49.084;8.646;2022-11-11T09:06:34;8.80;99.90
20845;DHT22;10583;49.084;8.646;2022-11-11T09:09:00;9.00;99.90
20845;DHT22;10583;49.084;8.646;2022-11-11T09:11:27;9.20;99.90
20845;DHT22;10583;49.084;8.646;2022-11-11T09:14:00;9.20;99.90
20845;DHT22;10583;49.084;8.646;2022-11-11T09:16:27;9.20;99.90
20845;DHT22;10583;49.084;8.646;2022-11-11T09:18:54;9.40;99.90
20845;DHT22;10583;49.084;8.646;2022-11-11T09:21:20;9.50;99.90
20845;DHT22;10583;49.084;8.646;2022-11-11T09:23:49;9.70;99.90
20845;DHT22;10583;49.084;8.646;2022-11-11T09:26:16;9.90;99.90
20845;DHT22;10583;49.084;8.646;2022-11-11T09:28:44;10.00;99.90
20845;DHT22;10583;49.084;8.646;2022-11-11T09:31:10;10.10;99.90
20845;DHT22;10583;49.084;8.646;2022-11-11T09:33:37;10.00;99.90
20845;DHT22;10583;49.084;8.646;2022-11-11T09:36:04;10.00;99.90
20845;DHT22;10583;49.084;8.646;2022-11-11T09:38:31;10.00;99.90
20845;DHT22;10583;49.084;8.646;2022-11-11T09:41:11;9.90;99.90
20845;DHT22;10583;49.084;8.646;2022-11-11T09:43:45;9.80;99.90
20845;DHT22;10583;49.084;8.646;2022-11-11T09:46:21;9.80;99.90
20845;DHT22;10583;49.084;8.646;2022-11-11T09:49:08;9.90;99.90
20845;DHT22;10583;49.084;8.646;2022-11-11T09:51:42;10.20;99.90
20845;DHT22;10583;49.084;8.646;2022-11-11T09:54:16;10.40;99.90
20845;DHT22;10583;49.084;8.646;2022-11-11T09:56:45;10.60;99.90
20845;DHT22;10583;49.084;8.646;2022-11-11T09:59:15;10.90;99.90
20845;DHT22;10583;49.084;8.646;2022-11-11T10:01:46;11.00;99.90
20845;DHT22;10583;49.084;8.646;2022-11-11T10:04:22;11.20;99.90
20845;DHT22;10583;49.084;8.646;2022-11-11T10:06:56;11.40;99.90
20845;DHT22;10583;49.084;8.646;2022-11-11T10:09:26;11.50;99.90
20845;DHT22;10583;49.084;8.646;2022-11-11T10:12:04;11.60;99.90
20845;DHT22;10583;49.084;8.646;2022-11-11T10:14:36;11.70;99.90
20845;DHT22;10583;49.084;8.646;2022-11-11T10:17:12;11.70;99.90
20845;DHT22;10583;49.084;8.646;2022-11-11T10:19:49;11.70;99.90
20845;DHT22;10583;49.084;8.646;2022-11-11T10:22:20;11.70;99.90
20845;DHT22;10583;49.084;8.646;2022-11-11T10:24:51;11.60;99.90
20845;DHT22;10583;49.084;8.646;2022-11-11T10:27:25;11.60;99.90
20845;DHT22;10583;49.084;8.646;2022-11-11T10:29:52;11.80;99.90
20845;DHT22;10583;49.084;8.646;2022-11-11T10:32:21;12.00;99.90
20845;DHT22;10583;49.084;8.646;2022-11-11T10:34:49;12.00;99.90
20845;DHT22;10583;49.084;8.646;2022-11-11T10:37:18;11.90;99.90
20845;DHT22;10583;49.084;8.646;2022-11-11T10:39:59;12.20;99.90
20845;DHT22;10583;49.084;8.646;2022-11-11T10:42:30;12.30;99.90
20845;DHT22;10583;49.084;8.646;2022-11-11T10:44:59;12.50;99.90
20845;DHT22;10583;49.084;8.646;2022-11-11T10:47:39;13.00;99.90
20845;DHT22;10583;49.084;8.646;2022-11-11T10:50:14;13.00;99.90
20845;DHT22;10583;49.084;8.646;2022-11-11T10:52:46;13.00;99.90
20845;DHT22;10583;49.084;8.646;2022-11-11T10:55:18;13.00;99.90
20845;DHT22;10583;49.084;8.646;2022-11-11T10:57:51;13.20;99.90
20845;DHT22;10583;49.084;8.646;2022-11-11T11:00:18;13.10;99.90
20845;DHT22;10583;49.084;8.646;2022-11-11T11:02:52;13.00;99.90
20845;DHT22;10583;49.084;8.646;2022-11-11T11:05:26;12.80;99.90
20845;DHT22;10583;49.084;8.646;2022-11-11T11:07:57;12.80;99.90
20845;DHT22;10583;49.084;8.646;2022-11-11T11:10:29;12.70;99.90
20845;DHT22;10583;49.084;8.646;2022-11-11T11:13:03;12.70;99.90
20845;DHT22;10583;49.084;8.646;2022-11-11T11:15:35;12.90;99.90
20845;DHT22;10583;49.084;8.646;2022-11-11T11:18:07;13.00;99.90
20845;DHT22;10583;49.084;8.646;2022-11-11T11:20:34;12.90;99.90
20845;DHT22;10583;49.084;8.646;2022-11-11T11:23:01;12.90;99.90
20845;DHT22;10583;49.084;8.646;2022-11-11T11:25:30;13.10;99.90
20845;DHT22;10583;49.084;8.646;2022-11-11T11:28:07;13.30;99.90
20845;DHT22;10583;49.084;8.646;2022-11-11T11:30:34;13.60;99.90
20845;DHT22;10583;49.084;8.646;2022-11-11T11:33:03;13.80;99.90
20845;DHT22;10583;49.084;8.646;2022-11-11T11:35:35;13.80;99.90
20845;DHT22;10583;49.084;8.646;2022-11-11T11:38:03;13.50;99.90
20845;DHT22;10583;49.084;8.646;2022-11-11T11:40:49;13.30;99.90
20845;DHT22;10583;49.084;8.646;2022-11-11T11:43:29;13.30;99.90
20845;DHT22;10583;49.084;8.646;2022-11-11T11:45:59;13.40;99.90
20845;DHT22;10583;49.084;8.646;2022-11-11T11:48:39;13.50;99.90
20845;DHT22;10583;49.084;8.646;2022-11-11T11:51:24;13.60;99.90
20845;DHT22;10583;49.084;8.646;2022-11-11T11:54:02;13.80;99.90
20845;DHT22;10583;49.084;8.646;2022-11-11T11:56:36;13.80;99.90
20845;DHT22;10583;49.084;8.646;2022-11-11T11:59:10;14.00;99.90
20845;DHT22;10583;49.084;8.646;2022-11-11T12:01:50;14.20;99.90
20845;DHT22;10583;49.084;8.646;2022-11-11T12:04:32;14.40;99.90
20845;DHT22;10583;49.084;8.646;2022-11-11T12:07:15;14.70;99.90
20845;DHT22;10583;49.084;8.646;2022-11-11T12:09:55;14.80;99.90
20845;DHT22;10583;49.084;8.646;2022-11-11T12:12:28;15.10;99.90
20845;DHT22;10583;49.084;8.646;2022-11-11T12:15:06;15.10;99.90
20845;DHT22;10583;49.084;8.646;2022-11-11T12:17:43;15.10;99.90
20845;DHT22;10583;49.084;8.646;2022-11-11T12:20:16;14.90;99.90
20845;DHT22;10583;49.084;8.646;2022-11-11T12:22:56;15.00;99.90
20845;DHT22;10583;49.084;8.646;2022-11-11T12:25:39;15.00;99.90
20845;DHT22;10583;49.084;8.646;2022-11-11T12:28:17;15.00;99.90
20845;DHT22;10583;49.084;8.646;2022-11-11T12:30:51;14.90;99.90
20845;DHT22;10583;49.084;8.646;2022-11-11T12:33:41;14.80;99.90
20845;DHT22;10583;49.084;8.646;2022-11-11T12:36:16;14.70;99.90
20845;DHT22;10583;49.084;8.646;2022-11-11T12:38:49;14.80;99.90
20845;DHT22;10583;49.084;8.646;2022-11-11T12:41:25;14.80;99.90
20845;DHT22;10583;49.084;8.646;2022-11-11T12:44:00;14.80;99.90
20845;DHT22;10583;49.084;8.646;2022-11-11T12:46:37;14.90;99.90
20845;DHT22;10583;49.084;8.646;2022-11-11T12:49:22;14.90;99.90
20845;DHT22;10583;49.084;8.646;2022-11-11T12:51:58;14.80;99.90
20845;DHT22;10583;49.084;8.646;2022-11-11T12:54:33;15.00;99.90
20845;DHT22;10583;49.084;8.646;2022-11-11T12:57:09;14.90;99.90
20845;DHT22;10583;49.084;8.646;2022-11-11T12:59:52;14.70;99.90
20845;DHT22;10583;49.084;8.646;2022-11-11T13:02:37;14.50;99.90
20845;DHT22;10583;49.084;8.646;2022-11-11T13:05:12;14.30;99.90
20845;DHT22;10583;49.084;8.646;2022-11-11T13:08:01;14.40;99.90
20845;DHT22;10583;49.084;8.646;2022-11-11T13:10:37;14.40;99.90
20845;DHT22;10583;49.084;8.646;2022-11-11T13:13:20;14.40;99.90
20845;DHT22;10583;49.084;8.646;2022-11-11T13:15:50;14.30;99.90
20845;DHT22;10583;49.084;8.646;2022-11-11T13:18:24;14.20;99.90
20845;DHT22;10583;49.084;8.646;2022-11-11T13:20:55;14.00;99.90
20845;DHT22;10583;49.084;8.646;2022-11-11T13:23:22;13.80;99.90
20845;DHT22;10583;49.084;8.646;2022-11-11T13:25:53;13.80;99.90
20845;DHT22;10583;49.084;8.646;2022-11-11T13:28:23;13.80;99.90
20845;DHT22;10583;49.084;8.646;2022-11-11T13:31:05;13.90;99.90
20845;DHT22;10583;49.084;8.646;2022-11-11T13:33:38;13.80;99.90
20845;DHT22;10583;49.084;8.646;2022-11-11T13:36:07;13.70;99.90
20845;DHT22;10583;49.084;8.646;2022-11-11T13:38:36;13.70;99.90
20845;DHT22;10583;49.084;8.646;2022-11-11T13:41:05;13.60;99.90
20845;DHT22;10583;49.084;8.646;2022-11-11T13:43:35;13.60;99.90
20845;DHT22;10583;49.084;8.646;2022-11-11T13:46:10;13.50;99.90
20845;DHT22;10583;49.084;8.646;2022-11-11T13:48:47;13.50;99.90
20845;DHT22;10583;49.084;8.646;2022-11-11T13:51:23;13.50;99.90
20845;DHT22;10583;49.084;8.646;2022-11-11T13:53:51;13.50;99.90
20845;DHT22;10583;49.084;8.646;2022-11-11T13:56:24;13.40;99.90
20845;DHT22;10583;49.084;8.646;2022-11-11T13:58:52;13.30;99.90
20845;DHT22;10583;49.084;8.646;2022-11-11T14:01:20;13.30;99.90
20845;DHT22;10583;49.084;8.646;2022-11-11T14:04:00;13.20;99.90
20845;DHT22;10583;49.084;8.646;2022-11-11T14:09:57;13.20;99.90
20845;DHT22;10583;49.084;8.646;2022-11-11T14:12:38;12.90;99.90
20845;DHT22;10583;49.084;8.646;2022-11-11T14:15:33;12.70;99.90
20845;DHT22;10583;49.084;8.646;2022-11-11T14:18:00;12.60;99.90
20845;DHT22;10583;49.084;8.646;2022-11-11T14:20:38;12.50;99.90
20845;DHT22;10583;49.084;8.646;2022-11-11T14:23:33;12.30;99.90
20845;DHT22;10583;49.084;8.646;2022-11-11T14:26:22;12.20;99.90
20845;DHT22;10583;49.084;8.646;2022-11-11T14:28:52;12.10;99.90
20845;DHT22;10583;49.084;8.646;2022-11-11T14:31:53;12.00;99.90
20845;DHT22;10583;49.084;8.646;2022-11-11T14:34:37;11.80;99.90
20845;DHT22;10583;49.084;8.646;2022-11-11T14:37:20;11.50;99.90
20845;DHT22;10583;49.084;8.646;2022-11-11T14:39:51;11.40;99.90
20845;DHT22;10583;49.084;8.646;2022-11-11T14:42:46;11.20;99.90
20845;DHT22;10583;49.084;8.646;2022-11-11T14:48:57;10.90;99.90
20845;DHT22;10583;49.084;8.646;2022-11-11T14:51:45;10.80;99.90
20845;DHT22;10583;49.084;8.646;2022-11-11T14:54:55;10.80;99.90
20845;DHT22;10583;49.084;8.646;2022-11-11T14:57:24;10.70;99.90
20845;DHT22;10583;49.084;8.646;2022-11-11T14:59:53;10.70;99.90
20845;DHT22;10583;49.084;8.646;2022-11-11T15:02:25;10.60;99.90
20845;DHT22;10583;49.084;8.646;2022-11-11T15:04:53;10.50;99.90
20845;DHT22;10583;49.084;8.646;2022-11-11T15:07:45;10.40;99.90
20845;DHT22;10583;49.084;8.646;2022-11-11T15:10:24;10.40;99.90
20845;DHT22;10583;49.084;8.646;2022-11-11T15:16:01;10.30;99.90
20845;DHT22;10583;49.084;8.646;2022-11-11T15:18:46;10.20;99.90
20845;DHT22;10583;49.084;8.646;2022-11-11T15:21:21;10.10;99.90
20845;DHT22;10583;49.084;8.646;2022-11-11T15:24:02;10.10;99.90
20845;DHT22;10583;49.084;8.646;2022-11-11T15:26:37;10.10;99.90
20845;DHT22;10583;49.084;8.646;2022-11-11T15:29:43;10.00;99.90
20845;DHT22;10583;49.084;8.646;2022-11-11T15:32:18;10.00;99.90
20845;DHT22;10583;49.084;8.646;2022-11-11T15:34:51;9.90;99.90
20845;DHT22;10583;49.084;8.646;2022-11-11T15:37:23;9.80;99.90
20845;DHT22;10583;49.084;8.646;2022-11-11T15:39:52;9.50;99.90
20845;DHT22;10583;49.084;8.646;2022-11-11T15:42:27;9.30;99.90
20845;DHT22;10583;49.084;8.646;2022-11-11T15:44:55;9.30;99.90
20845;DHT22;10583;49.084;8.646;2022-11-11T15:47:23;9.40;99.90
20845;DHT22;10583;49.084;8.646;2022-11-11T15:49:51;9.40;99.90
20845;DHT22;10583;49.084;8.646;2022-11-11T15:52:26;9.40;99.90
20845;DHT22;10583;49.084;8.646;2022-11-11T15:54:54;9.30;99.90
20845;DHT22;10583;49.084;8.646;2022-11-11T15:57:24;9.30;99.90
20845;DHT22;10583;49.084;8.646;2022-11-11T15:59:51;9.30;99.90
20845;DHT22;10583;49.084;8.646;2022-11-11T16:02:19;9.20;99.90
20845;DHT22;10583;49.084;8.646;2022-11-11T16:04:47;9.30;99.90
20845;DHT22;10583;49.084;8.646;2022-11-11T16:07:20;9.30;99.90
20845;DHT22;10583;49.084;8.646;2022-11-11T16:09:47;9.20;99.90
20845;DHT22;10583;49.084;8.646;2022-11-11T16:12:17;9.20;99.90
20845;DHT22;10583;49.084;8.646;2022-11-11T16:14:48;9.10;99.90
20845;DHT22;10583;49.084;8.646;2022-11-11T16:17:17;9.10;99.90
20845;DHT22;10583;49.084;8.646;2022-11-11T16:19:45;9.10;99.90